PWSweather.com
Personal Weather Stations
Station Observations
SWHWX01
St AppolinardFR 38160

St AppolinardFR 38160

Lat: 45.191, Lon: 5.268

Elevation: 1460

Station Type: Davis Vantage Pro2 Plus

www.sweetwebhome.com/?show=wxindex

High Low Average
Temperature 55.7°F13.2°C 46.9°F8.3°C 50.0°F10.0°C
Dew Point 52.8°F11.6°C 41.1°F5.1°C 44.6°F7.0°C
Winds 11.5 mph 18.5 kmh Calm Calm 5.0 mph W8.0 kmh W
Wind Gusts 25.0 mph40.2 kmh -- 9.0 mph14.5 kmh
Humidity 90% 70% 82%
Pressure 30.18 in1022.0 mb 30.00 in1015.9 mb -
Precipitation 0.06 in1.5 mm - -
Hour Temp Dew Point Humidity Winds Wind Gusts Pressure Precip Precip Rate Daily Precip Total
12:00 AM 55.8°F13.2°C 53.2°F11.8°C 91% 1.9 mph NW3.1 kmh NW 4.0 mph6.4 kmh 30.00 in1015.9 mb - 0.00 in0.0 mm 0.00 in0.0 mm
12:30 AM 55.5°F13.1°C 53.2°F11.8°C 92% 0.2 mph NW0.3 kmh NW 1.0 mph1.6 kmh 30.00 in1015.9 mb - 0.00 in0.0 mm 0.00 in0.0 mm
01:00 AM 55.6°F13.1°C 52.7°F11.5°C 90% 0.5 mph NW0.8 kmh NW 2.0 mph3.2 kmh 30.01 in1016.3 mb - 0.00 in0.0 mm 0.00 in0.0 mm
01:30 AM 55.7°F13.2°C 52.8°F11.6°C 90% Calm Calm -- 30.01 in1016.3 mb - 0.00 in0.0 mm 0.00 in0.0 mm
02:00 AM 55.5°F13.1°C 51.7°F10.9°C 87% Calm Calm -- 30.01 in1016.3 mb - 0.00 in0.0 mm 0.00 in0.0 mm
02:30 AM 55.2°F12.9°C 50.8°F10.4°C 85% Calm Calm -- 30.01 in1016.3 mb - 0.00 in0.0 mm 0.00 in0.0 mm
03:00 AM 54.6°F12.6°C 49.9°F9.9°C 84% Calm Calm -- 30.01 in1016.3 mb - 0.00 in0.0 mm 0.00 in0.0 mm
03:30 AM 53.9°F12.2°C 47.9°F8.8°C 80% 0.4 mph NW0.6 kmh NW 1.0 mph1.6 kmh 30.02 in1016.6 mb - 0.00 in0.0 mm 0.00 in0.0 mm
04:00 AM 53.2°F11.8°C 48.2°F9.0°C 83% 0.6 mph NW1.0 kmh NW 1.0 mph1.6 kmh 30.00 in1015.9 mb - 0.00 in0.0 mm 0.00 in0.0 mm
04:30 AM 52.3°F11.3°C 46.7°F8.2°C 81% 4.0 mph NW6.4 kmh NW 6.0 mph9.7 kmh 30.00 in1015.9 mb - 0.00 in0.0 mm 0.00 in0.0 mm
05:00 AM 52.2°F11.2°C 45.9°F7.7°C 79% 3.2 mph NNW5.1 kmh NNW 6.0 mph9.7 kmh 30.01 in1016.3 mb - 0.00 in0.0 mm 0.00 in0.0 mm
05:30 AM 51.2°F10.7°C 45.6°F7.6°C 81% 3.5 mph NNW5.6 kmh NNW 5.0 mph8.0 kmh 30.00 in1015.9 mb - 0.00 in0.0 mm 0.00 in0.0 mm
06:00 AM 50.8°F10.4°C 45.5°F7.5°C 82% 3.8 mph NNW6.1 kmh NNW 6.0 mph9.7 kmh 30.01 in1016.3 mb - 0.00 in0.0 mm 0.00 in0.0 mm
06:30 AM 50.5°F10.3°C 44.6°F7.0°C 80% 3.6 mph NNW5.8 kmh NNW 7.0 mph11.3 kmh 30.02 in1016.6 mb - 0.00 in0.0 mm 0.00 in0.0 mm
07:00 AM 49.6°F9.8°C 44.0°F6.7°C 81% 3.8 mph NNW6.1 kmh NNW 5.0 mph8.0 kmh 30.02 in1016.6 mb - 0.00 in0.0 mm 0.00 in0.0 mm
07:30 AM 49.8°F9.9°C 43.9°F6.6°C 80% 3.7 mph NNW6.0 kmh NNW 6.0 mph9.7 kmh 30.03 in1016.9 mb - 0.00 in0.0 mm 0.00 in0.0 mm
08:00 AM 49.9°F9.9°C 43.7°F6.5°C 79% 2.9 mph NNW4.7 kmh NNW 7.0 mph11.3 kmh 30.04 in1017.3 mb - 0.00 in0.0 mm 0.00 in0.0 mm
08:30 AM 49.8°F9.9°C 43.2°F6.2°C 78% 3.4 mph N5.5 kmh N 6.0 mph9.7 kmh 30.05 in1017.6 mb - 0.00 in0.0 mm 0.00 in0.0 mm
09:00 AM 49.4°F9.7°C 43.9°F6.6°C 81% 2.2 mph N3.5 kmh N 6.0 mph9.7 kmh 30.06 in1017.9 mb - 0.00 in0.0 mm 0.00 in0.0 mm
09:30 AM 48.0°F8.9°C 44.3°F6.8°C 87% 1.6 mph N2.6 kmh N 4.0 mph6.4 kmh 30.06 in1017.9 mb - 0.01 in0.3 mm 0.01 in0.3 mm
10:00 AM 48.1°F8.9°C 45.0°F7.2°C 89% 0.4 mph N0.6 kmh N 2.0 mph3.2 kmh 30.07 in1018.3 mb - 0.00 in0.0 mm 0.01 in0.3 mm
10:30 AM 47.7°F8.7°C 44.6°F7.0°C 89% 2.7 mph N4.3 kmh N 4.0 mph6.4 kmh 30.08 in1018.6 mb - 0.01 in0.3 mm 0.02 in0.5 mm
11:00 AM 47.6°F8.7°C 44.8°F7.1°C 90% 2.2 mph N3.5 kmh N 6.0 mph9.7 kmh 30.08 in1018.6 mb - 0.01 in0.3 mm 0.02 in0.5 mm
11:30 AM 47.2°F8.4°C 44.4°F6.9°C 90% 3.0 mph N4.8 kmh N 10.0 mph16.1 kmh 30.08 in1018.6 mb - 0.01 in0.3 mm 0.02 in0.5 mm
12:00 PM 46.9°F8.3°C 44.1°F6.7°C 90% 5.7 mph N9.2 kmh N 12.0 mph19.3 kmh 30.08 in1018.6 mb - 0.02 in0.5 mm 0.04 in1.0 mm
12:30 PM 47.1°F8.4°C 44.4°F6.9°C 90% 6.1 mph NW9.8 kmh NW 13.0 mph20.9 kmh 30.08 in1018.6 mb - 0.00 in0.0 mm 0.04 in1.0 mm
01:00 PM 48.2°F9.0°C 44.8°F7.1°C 88% 5.6 mph N9.0 kmh N 8.0 mph12.9 kmh 30.07 in1018.3 mb - 0.01 in0.3 mm 0.05 in1.3 mm
01:30 PM 48.8°F9.3°C 44.8°F7.1°C 86% 5.7 mph N9.2 kmh N 11.0 mph17.7 kmh 30.07 in1018.3 mb - 0.00 in0.0 mm 0.05 in1.3 mm
02:00 PM 49.9°F9.9°C 45.2°F7.3°C 84% 6.9 mph NNE11.1 kmh NNE 13.0 mph20.9 kmh 30.07 in1018.3 mb - 0.00 in0.0 mm 0.05 in1.3 mm
02:30 PM 51.0°F10.6°C 45.0°F7.2°C 80% 6.2 mph NNW10.0 kmh NNW 13.0 mph20.9 kmh 30.07 in1018.3 mb - 0.00 in0.0 mm 0.05 in1.3 mm
03:00 PM 50.7°F10.4°C 44.8°F7.1°C 80% 5.6 mph NNW9.0 kmh NNW 13.0 mph20.9 kmh 30.07 in1018.3 mb - 0.00 in0.0 mm 0.05 in1.3 mm
03:30 PM 51.1°F10.6°C 43.5°F6.4°C 75% 5.0 mph NNE8.0 kmh NNE 10.0 mph16.1 kmh 30.06 in1017.9 mb - 0.00 in0.0 mm 0.05 in1.3 mm
04:00 PM 52.3°F11.3°C 42.8°F6.0°C 70% 5.9 mph NNE9.5 kmh NNE 10.0 mph16.1 kmh 30.07 in1018.3 mb - 0.00 in0.0 mm 0.05 in1.3 mm
04:30 PM 51.5°F10.8°C 42.4°F5.8°C 71% 2.8 mph N4.5 kmh N 7.0 mph11.3 kmh 30.07 in1018.3 mb - 0.00 in0.0 mm 0.05 in1.3 mm
05:00 PM 49.8°F9.9°C 42.2°F5.7°C 75% 11.5 mph N18.5 kmh N 20.0 mph32.2 kmh 30.08 in1018.6 mb - 0.00 in0.0 mm 0.05 in1.3 mm
05:30 PM 47.2°F8.4°C 42.0°F5.6°C 82% 9.3 mph N15.0 kmh N 17.0 mph27.4 kmh 30.08 in1018.6 mb - 0.01 in0.3 mm 0.06 in1.5 mm
06:00 PM 47.8°F8.8°C 42.3°F5.7°C 81% 9.5 mph NNW15.3 kmh NNW 14.0 mph22.5 kmh 30.09 in1019.0 mb - 0.00 in0.0 mm 0.06 in1.5 mm
06:30 PM 48.1°F8.9°C 42.2°F5.7°C 80% 8.2 mph NE13.2 kmh NE 25.0 mph40.2 kmh 30.10 in1019.3 mb - 0.00 in0.0 mm 0.06 in1.5 mm
07:00 PM 48.1°F8.9°C 41.6°F5.3°C 78% 6.7 mph NNW10.8 kmh NNW 12.0 mph19.3 kmh 30.11 in1019.6 mb - 0.00 in0.0 mm 0.06 in1.5 mm
07:30 PM 48.0°F8.9°C 41.5°F5.3°C 78% 6.1 mph NW9.8 kmh NW 11.0 mph17.7 kmh 30.12 in1020.0 mb - 0.00 in0.0 mm 0.06 in1.5 mm
08:00 PM 48.0°F8.9°C 41.1°F5.1°C 77% 5.1 mph NNW8.2 kmh NNW 12.0 mph19.3 kmh 30.13 in1020.3 mb - 0.00 in0.0 mm 0.06 in1.5 mm
08:30 PM 47.6°F8.7°C 41.4°F5.2°C 79% 6.6 mph N10.6 kmh N 11.0 mph17.7 kmh 30.14 in1020.7 mb - 0.00 in0.0 mm 0.06 in1.5 mm
09:00 PM 48.1°F8.9°C 41.6°F5.3°C 78% 5.9 mph N9.5 kmh N 12.0 mph19.3 kmh 30.15 in1021.0 mb - 0.00 in0.0 mm 0.06 in1.5 mm
09:30 PM 48.0°F8.9°C 41.8°F5.4°C 79% 8.3 mph NNW13.4 kmh NNW 14.0 mph22.5 kmh 30.16 in1021.3 mb - 0.00 in0.0 mm 0.06 in1.5 mm
10:00 PM 48.3°F9.1°C 42.1°F5.6°C 79% 11.1 mph NW17.9 kmh NW 18.0 mph29.0 kmh 30.16 in1021.3 mb - 0.00 in0.0 mm 0.06 in1.5 mm
10:30 PM 48.3°F9.1°C 42.1°F5.6°C 79% 9.0 mph NNW14.5 kmh NNW 11.0 mph17.7 kmh 30.17 in1021.7 mb - 0.00 in0.0 mm 0.06 in1.5 mm
11:00 PM 48.2°F9.0°C 42.3°F5.7°C 80% 10.4 mph N16.7 kmh N 15.0 mph24.1 kmh 30.18 in1022.0 mb - 0.00 in0.0 mm 0.08 in2.0 mm
11:30 PM 47.6°F8.7°C 42.1°F5.6°C 81% 11.3 mph NW18.2 kmh NW 17.0 mph27.4 kmh 30.18 in1022.0 mb - 0.00 in0.0 mm 0.08 in2.0 mm